Time;durP1;ratioP1;P1;durP2;ratioP2;P2;SDS_P1;SDS_P2;PMS_P1;PMS_P2;Temp;Humidity;BMP_temperature;BMP_pressure;BME280_temperature;BME280_humidity;BME280_pressure;Samples;Min_cycle;Max_cycle;Signal;HPM_P1;HPM_P2
2023/01/07 00:01:28;;;;;;;4.35;2.30;;;10.90;99.90;;;;;;5034335;28;20017;-65
2023/01/07 00:03:55;;;;;;;3.45;2.25;;;11.00;99.90;;;;;;5033133;28;20040;-65
2023/01/07 00:06:29;;;;;;;4.10;2.42;;;11.00;99.90;;;;;;5033070;28;20052;-66
2023/01/07 00:08:56;;;;;;;3.60;2.30;;;11.10;99.90;;;;;;5033035;28;20492;-66
2023/01/07 00:11:42;;;;;;;4.43;2.60;;;11.20;99.90;;;;;;5032847;28;20048;-63
2023/01/07 00:14:11;;;;;;;4.63;2.50;;;11.10;99.90;;;;;;5032559;28;20057;-63
2023/01/07 00:16:37;;;;;;;2.83;2.00;;;11.00;99.90;;;;;;5032759;28;20083;-63
2023/01/07 00:19:04;;;;;;;4.32;2.35;;;10.90;99.90;;;;;;5033118;28;20022;-63
2023/01/07 00:21:30;;;;;;;4.10;2.22;;;11.10;99.90;;;;;;5033026;28;20022;-63
2023/01/07 00:24:01;;;;;;;3.35;2.67;;;11.10;99.90;;;;;;5033319;28;20032;-64
2023/01/07 00:26:29;;;;;;;4.75;2.60;;;10.90;99.90;;;;;;5032792;28;20025;-63
2023/01/07 00:28:56;;;;;;;4.55;2.70;;;10.70;99.90;;;;;;5033337;28;20029;-63
2023/01/07 00:31:33;;;;;;;4.43;3.03;;;10.70;99.90;;;;;;5032542;28;20036;-63
2023/01/07 00:36:26;;;;;;;5.93;3.30;;;10.40;99.90;;;;;;5034032;28;20112;-63
2023/01/07 00:39:02;;;;;;;6.68;3.17;;;10.30;99.90;;;;;;5032524;28;20022;-63
2023/01/07 00:41:27;;;;;;;5.50;3.00;;;10.20;99.90;;;;;;5032358;28;20040;-63
2023/01/07 00:43:53;;;;;;;5.00;3.40;;;10.30;99.90;;;;;;5032848;28;20029;-63
2023/01/07 00:46:19;;;;;;;7.35;2.90;;;10.30;99.90;;;;;;5032495;28;20026;-63
2023/01/07 00:48:45;;;;;;;4.43;2.97;;;10.40;99.90;;;;;;5033516;28;20025;-63
2023/01/07 00:51:12;;;;;;;6.35;3.08;;;10.40;99.90;;;;;;5032872;28;20029;-63
2023/01/07 00:53:38;;;;;;;6.38;2.97;;;10.40;99.90;;;;;;5032208;28;20091;-63
2023/01/07 00:56:04;;;;;;;5.32;2.97;;;10.50;99.90;;;;;;5032126;28;20029;-63
2023/01/07 00:58:30;;;;;;;3.58;2.33;;;10.60;99.90;;;;;;5033340;28;20022;-63
2023/01/07 01:01:01;;;;;;;4.13;3.05;;;10.80;99.90;;;;;;5032061;28;20435;-63
2023/01/07 01:03:28;;;;;;;3.58;2.78;;;10.80;99.90;;;;;;5033384;28;20109;-63
2023/01/07 01:05:59;;;;;;;5.75;3.05;;;10.80;99.90;;;;;;5033581;28;20033;-63
2023/01/07 01:08:24;;;;;;;5.67;3.23;;;10.70;99.90;;;;;;5032186;28;20029;-63
2023/01/07 01:10:50;;;;;;;5.55;2.97;;;10.70;99.90;;;;;;5031920;28;20018;-63
2023/01/07 01:13:17;;;;;;;4.40;3.00;;;10.70;99.90;;;;;;5031904;28;20076;-63
2023/01/07 01:15:44;;;;;;;4.10;2.95;;;10.50;99.90;;;;;;5031945;28;20026;-63
2023/01/07 01:18:10;;;;;;;4.78;2.78;;;10.50;99.90;;;;;;5031986;28;20021;-63
2023/01/07 01:20:36;;;;;;;4.13;2.97;;;10.60;99.90;;;;;;5031829;28;20551;-63
2023/01/07 01:23:01;;;;;;;4.45;2.90;;;10.40;99.90;;;;;;5031919;28;20021;-63
2023/01/07 01:25:27;;;;;;;4.93;3.00;;;10.50;99.90;;;;;;5032075;28;20025;-63
2023/01/07 01:27:52;;;;;;;3.85;2.90;;;10.60;99.90;;;;;;5031744;28;20108;-63
2023/01/07 01:30:18;;;;;;;5.03;2.95;;;10.50;99.90;;;;;;5031648;28;20055;-63
2023/01/07 01:32:43;;;;;;;5.07;3.10;;;10.50;99.90;;;;;;5033252;28;20025;-63
2023/01/07 01:35:09;;;;;;;5.85;3.08;;;10.60;99.90;;;;;;5031607;28;20028;-63
2023/01/07 01:37:34;;;;;;;5.53;3.35;;;10.60;99.90;;;;;;5033215;28;20076;-63
2023/01/07 01:40:02;;;;;;;4.55;3.05;;;10.50;99.90;;;;;;5032051;28;20037;-63
2023/01/07 01:42:29;;;;;;;4.82;3.03;;;10.40;99.90;;;;;;5033293;28;20029;-63
2023/01/07 01:45:00;;;;;;;5.10;3.33;;;10.50;99.90;;;;;;5033010;28;20084;-63
2023/01/07 01:47:49;;;;;;;6.65;3.42;;;10.50;99.90;;;;;;5032845;28;20048;-63
2023/01/07 01:50:36;;;;;;;4.80;3.15;;;10.50;99.90;;;;;;5032794;28;20044;-63
2023/01/07 01:53:01;;;;;;;4.22;2.65;;;10.40;99.90;;;;;;5033177;28;20022;-63
2023/01/07 01:55:47;;;;;;;4.57;3.10;;;10.50;99.90;;;;;;5031750;28;20028;-63
2023/01/07 01:58:19;;;;;;;5.95;3.08;;;10.50;99.90;;;;;;5031499;28;20022;-63
2023/01/07 02:00:44;;;;;;;5.63;2.88;;;10.50;99.90;;;;;;5031530;28;20138;-63
2023/01/07 02:03:15;;;;;;;5.00;3.67;;;10.40;99.90;;;;;;5033562;28;20025;-63
2023/01/07 02:05:43;;;;;;;5.78;2.83;;;10.20;99.90;;;;;;5035356;28;20026;-63
2023/01/07 02:08:09;;;;;;;5.57;3.63;;;10.10;99.90;;;;;;5036548;28;20060;-63
2023/01/07 02:10:34;;;;;;;5.00;2.97;;;10.00;99.90;;;;;;5035176;28;20025;-63
2023/01/07 02:13:27;;;;;;;6.78;3.33;;;10.10;99.90;;;;;;5036453;28;20022;-63
2023/01/07 02:15:55;;;;;;;;;;;10.10;99.90;;;;;;5036079;28;20036;-63
2023/01/07 02:18:41;;;;;;;6.97;3.55;;;10.10;99.90;;;;;;5036561;28;19905;-63
2023/01/07 02:21:43;;;;;;;7.00;2.97;;;10.10;99.90;;;;;;5036292;28;20033;-63
2023/01/07 02:24:45;;;;;;;8.13;2.78;;;10.10;99.90;;;;;;5035469;28;20033;-63
2023/01/07 02:27:38;;;;;;;6.20;3.60;;;10.10;99.90;;;;;;5034950;28;20576;-63
2023/01/07 02:30:37;;;;;;;4.35;3.00;;;9.90;99.90;;;;;;5034760;28;20037;-63
2023/01/07 02:33:44;;;;;;;4.32;3.25;;;9.90;99.90;;;;;;5035986;28;20360;-63
2023/01/07 02:36:28;;;;;;;4.72;3.28;;;9.80;99.90;;;;;;5034612;28;20028;-63
2023/01/07 02:39:14;;;;;;;5.00;3.55;;;9.70;99.90;;;;;;5034722;28;20029;-63
2023/01/07 02:41:44;;;;;;;6.35;3.20;;;9.70;99.90;;;;;;5035907;28;20116;-63
2023/01/07 02:44:26;;;;;;;4.65;3.53;;;9.70;99.90;;;;;;5034817;28;20119;-63
2023/01/07 02:46:55;;;;;;;5.50;3.70;;;9.70;99.90;;;;;;5035918;28;20032;-63
2023/01/07 02:49:21;;;;;;;4.13;3.17;;;9.70;99.90;;;;;;5034434;28;20029;-63
2023/01/07 02:51:47;;;;;;;5.18;3.58;;;9.70;99.90;;;;;;5035786;28;20021;-63
2023/01/07 02:54:27;;;;;;;4.07;3.00;;;9.80;99.90;;;;;;5034367;28;20030;-63
2023/01/07 02:57:06;;;;;;;4.10;3.15;;;9.90;99.90;;;;;;5035591;28;20116;-63
2023/01/07 02:59:56;;;;;;;4.75;3.60;;;10.00;99.90;;;;;;5034227;28;20025;-63
2023/01/07 03:02:40;;;;;;;5.22;3.00;;;10.00;99.90;;;;;;5035472;28;20018;-63
2023/01/07 03:05:40;;;;;;;3.95;2.80;;;10.00;99.90;;;;;;5035621;28;20036;-63
2023/01/07 03:08:30;;;;;;;3.78;2.85;;;10.20;99.90;;;;;;5035741;28;20018;-63
2023/01/07 03:11:02;;;;;;;4.93;2.55;;;10.20;99.90;;;;;;5034595;28;20036;-63
2023/01/07 03:13:43;;;;;;;4.65;2.78;;;10.20;99.90;;;;;;5033326;28;20025;-63
2023/01/07 03:16:38;;;;;;;3.70;3.10;;;10.20;99.90;;;;;;5033829;28;20033;-63
2023/01/07 03:19:16;;;;;;;4.65;3.60;;;10.20;99.90;;;;;;5028481;28;20370;-63
2023/01/07 03:21:44;;;;;;;3.28;2.83;;;10.20;99.90;;;;;;5034258;28;20025;-63
2023/01/07 03:24:10;;;;;;;3.20;2.72;;;10.20;99.90;;;;;;5034184;28;20029;-63
2023/01/07 03:26:43;;;;;;;4.30;2.75;;;10.20;99.90;;;;;;5033900;28;20032;-63
2023/01/07 03:29:11;;;;;;;4.63;2.90;;;10.30;99.90;;;;;;5033895;28;20476;-63
2023/01/07 03:31:57;;;;;;;3.22;2.50;;;10.30;99.90;;;;;;5033812;28;20056;-63
2023/01/07 03:34:26;;;;;;;5.00;2.72;;;10.30;99.90;;;;;;5034615;28;20061;-63
2023/01/07 03:36:59;;;;;;;5.18;2.92;;;10.30;99.90;;;;;;5033606;28;20029;-63
2023/01/07 03:39:29;;;;;;;5.13;2.85;;;10.20;99.90;;;;;;5033621;28;20095;-63
2023/01/07 03:44:39;;;;;;;3.40;2.30;;;10.20;99.90;;;;;;5034911;28;20028;-63
2023/01/07 03:47:05;;;;;;;3.90;2.42;;;10.20;99.90;;;;;;5034636;28;20029;-63
2023/01/07 03:49:33;;;;;;;2.97;2.45;;;10.20;99.90;;;;;;5033638;28;20564;-63
2023/01/07 03:51:58;;;;;;;4.20;2.53;;;10.20;99.90;;;;;;5033861;28;20029;-63
2023/01/07 03:54:24;;;;;;;5.35;2.40;;;10.20;99.90;;;;;;5034114;28;20029;-63
2023/01/07 03:56:49;;;;;;;3.40;2.38;;;10.20;99.90;;;;;;5034694;28;20121;-63
2023/01/07 03:59:15;;;;;;;3.78;2.45;;;10.20;99.90;;;;;;5034425;28;20052;-63
2023/01/07 04:01:40;;;;;;;3.40;2.35;;;10.20;99.90;;;;;;5033419;28;20045;-63
2023/01/07 04:04:06;;;;;;;2.40;1.92;;;10.20;99.90;;;;;;5033239;28;20017;-63
2023/01/07 04:06:31;;;;;;;2.67;2.03;;;10.20;99.90;;;;;;5033394;28;20025;-63
2023/01/07 04:08:57;;;;;;;2.80;1.75;;;10.10;99.90;;;;;;5033106;28;20029;-63
2023/01/07 04:11:23;;;;;;;2.53;2.30;;;10.00;99.90;;;;;;5032932;28;20037;-63
2023/01/07 04:13:48;;;;;;;2.65;1.92;;;10.10;99.90;;;;;;5032838;28;20025;-63
2023/01/07 04:16:14;;;;;;;3.75;2.00;;;10.10;99.90;;;;;;5044849;28;20028;-63
2023/01/07 04:18:39;;;;;;;3.30;2.38;;;10.10;99.90;;;;;;5052772;28;20021;-63
2023/01/07 04:21:05;;;;;;;3.13;1.63;;;10.10;99.90;;;;;;5053904;28;20057;-63
2023/01/07 04:23:30;;;;;;;4.97;2.00;;;10.10;99.90;;;;;;5053989;28;20017;-63
2023/01/07 04:25:56;;;;;;;2.53;2.00;;;10.20;99.90;;;;;;5053058;28;20021;-63
2023/01/07 04:28:21;;;;;;;2.25;1.90;;;10.30;99.90;;;;;;5053830;28;20061;-63
2023/01/07 04:30:47;;;;;;;2.75;1.90;;;10.30;99.90;;;;;;5053326;28;20121;-63
2023/01/07 04:33:12;;;;;;;2.33;2.00;;;10.30;99.90;;;;;;5052698;28;20092;-63
2023/01/07 04:35:39;;;;;;;2.33;1.88;;;10.30;99.90;;;;;;5052439;28;20024;-63
2023/01/07 04:38:05;;;;;;;2.20;2.00;;;10.40;99.90;;;;;;5053961;28;20100;-63
2023/01/07 04:40:31;;;;;;;5.50;2.30;;;10.50;99.90;;;;;;5052102;28;20029;-63
2023/01/07 04:42:56;;;;;;;2.85;2.25;;;10.40;99.90;;;;;;5053173;28;20094;-63
2023/01/07 04:45:22;;;;;;;5.32;2.53;;;10.40;99.90;;;;;;5053780;28;20033;-63
2023/01/07 04:47:47;;;;;;;3.10;2.30;;;10.40;99.90;;;;;;5052131;28;20021;-63
2023/01/07 04:50:14;;;;;;;3.17;2.50;;;10.40;99.90;;;;;;5052076;28;20032;-63
2023/01/07 04:52:39;;;;;;;2.67;2.13;;;10.50;99.90;;;;;;5052184;28;20021;-63
2023/01/07 04:55:05;;;;;;;3.13;2.45;;;10.50;99.90;;;;;;5053496;28;20036;-63
2023/01/07 04:57:31;;;;;;;4.70;2.53;;;10.60;99.90;;;;;;5052109;28;20025;-63
2023/01/07 04:59:56;;;;;;;4.88;2.28;;;10.50;99.90;;;;;;5052024;28;20079;-63
2023/01/07 05:02:22;;;;;;;3.45;2.75;;;10.50;99.90;;;;;;5053249;28;20029;-63
2023/01/07 05:04:47;;;;;;;3.13;2.17;;;10.30;99.90;;;;;;5052716;28;20013;-63
2023/01/07 05:07:13;;;;;;;3.60;2.38;;;10.20;99.90;;;;;;5052325;28;20028;-63
2023/01/07 05:09:38;;;;;;;3.17;2.00;;;10.10;99.90;;;;;;5051829;28;20024;-63
2023/01/07 05:12:04;;;;;;;4.38;2.45;;;10.10;99.90;;;;;;5053100;28;20047;-63
2023/01/07 05:14:30;;;;;;;4.93;2.50;;;10.20;99.90;;;;;;5052102;28;20020;-63
2023/01/07 05:16:55;;;;;;;4.18;2.90;;;10.10;99.90;;;;;;5051945;28;20033;-63
2023/01/07 05:19:21;;;;;;;6.95;2.72;;;10.00;99.90;;;;;;5051764;28;20021;-63
2023/01/07 05:21:46;;;;;;;5.03;2.53;;;9.90;99.90;;;;;;5051770;28;20070;-63
2023/01/07 05:24:12;;;;;;;5.05;3.30;;;9.90;99.90;;;;;;5051971;28;20024;-63
2023/01/07 05:26:37;;;;;;;8.48;2.97;;;9.90;99.90;;;;;;5051738;28;20085;-63
2023/01/07 05:29:03;;;;;;;4.03;2.80;;;9.90;99.90;;;;;;5052910;28;20036;-63
2023/01/07 05:31:29;;;;;;;6.32;3.03;;;9.90;99.90;;;;;;5052843;28;20033;-63
2023/01/07 05:33:54;;;;;;;6.93;3.35;;;10.00;99.90;;;;;;5051584;28;20028;-63
2023/01/07 05:36:20;;;;;;;3.38;2.75;;;10.10;99.90;;;;;;5052319;28;20124;-63
2023/01/07 05:38:45;;;;;;;4.40;2.83;;;10.10;99.90;;;;;;5056176;28;20116;-63
2023/01/07 05:41:11;;;;;;;6.10;3.42;;;10.10;99.90;;;;;;5081612;22;20066;-64
2023/01/07 05:43:37;;;;;;;4.47;2.70;;;10.10;99.90;;;;;;5073550;28;20017;-64
2023/01/07 05:46:03;;;;;;;4.75;3.35;;;10.10;99.90;;;;;;5057317;28;20028;-64
2023/01/07 05:48:29;;;;;;;4.13;2.80;;;10.00;99.90;;;;;;5072641;28;20032;-64
2023/01/07 05:50:54;;;;;;;5.25;3.25;;;10.00;99.90;;;;;;5056102;28;20028;-64
2023/01/07 05:53:20;;;;;;;5.70;3.33;;;10.10;99.90;;;;;;5055759;28;20017;-64
2023/01/07 05:55:45;;;;;;;8.15;3.08;;;10.20;99.90;;;;;;5056488;28;20025;-64
2023/01/07 05:58:11;;;;;;;8.45;3.28;;;10.20;99.90;;;;;;5055595;28;20025;-64
2023/01/07 06:00:36;;;;;;;4.07;3.03;;;10.30;99.90;;;;;;5056667;28;20021;-64
2023/01/07 06:03:04;;;;;;;6.65;3.17;;;10.30;99.90;;;;;;5055372;28;20024;-64
2023/01/07 06:05:30;;;;;;;8.05;3.65;;;10.30;99.90;;;;;;5055476;28;20025;-64
2023/01/07 06:07:55;;;;;;;7.25;3.90;;;10.30;99.90;;;;;;5056604;28;20104;-64
2023/01/07 06:10:21;;;;;;;6.28;4.07;;;10.30;99.90;;;;;;5056639;28;20021;-64
2023/01/07 06:12:46;;;;;;;6.78;4.25;;;10.30;99.90;;;;;;5055187;28;20021;-64
2023/01/07 06:15:12;;;;;;;4.72;3.50;;;10.30;99.90;;;;;;5055539;28;20025;-64
2023/01/07 06:17:37;;;;;;;6.00;3.72;;;10.20;99.90;;;;;;5055482;28;20120;-64
2023/01/07 06:20:05;;;;;;;6.85;3.72;;;10.00;99.90;;;;;;5055274;28;20048;-66
2023/01/07 06:22:30;;;;;;;5.75;3.70;;;10.00;99.90;;;;;;5055475;28;20021;-66
2023/01/07 06:24:56;;;;;;;10.65;4.55;;;9.80;99.90;;;;;;5056532;28;20049;-66
2023/01/07 06:27:21;;;;;;;7.60;3.95;;;9.90;99.90;;;;;;5055007;28;20029;-66
2023/01/07 06:29:47;;;;;;;6.45;3.95;;;10.10;99.90;;;;;;5056341;28;20021;-66
2023/01/07 06:32:12;;;;;;;8.73;3.90;;;10.00;99.90;;;;;;5054907;28;20490;-66
2023/01/07 06:34:38;;;;;;;6.25;4.00;;;10.00;99.90;;;;;;5056299;28;20029;-66
2023/01/07 06:37:03;;;;;;;6.75;4.00;;;9.90;99.90;;;;;;5055046;28;20494;-66
2023/01/07 06:39:29;;;;;;;9.45;4.07;;;9.90;99.90;;;;;;5056337;28;20029;-66
2023/01/07 06:41:54;;;;;;;7.10;4.00;;;9.90;99.90;;;;;;5054599;28;20029;-64
2023/01/07 06:44:20;;;;;;;11.55;4.78;;;9.80;99.90;;;;;;5055906;28;20031;-66
2023/01/07 06:46:45;;;;;;;5.85;3.80;;;9.80;99.90;;;;;;5055786;28;20043;-66
2023/01/07 06:49:11;;;;;;;7.82;4.18;;;9.90;99.90;;;;;;5054840;28;20017;-66
2023/01/07 06:51:36;;;;;;;6.25;3.47;;;10.00;99.90;;;;;;5054384;28;20021;-66
2023/01/07 06:54:02;;;;;;;6.55;4.07;;;10.10;99.90;;;;;;5054658;28;20033;-66
2023/01/07 06:56:27;;;;;;;5.65;3.95;;;10.00;99.90;;;;;;5055683;28;20075;-64
2023/01/07 06:58:53;;;;;;;5.70;4.07;;;10.20;99.90;;;;;;5055163;28;20150;-64
2023/01/07 07:01:19;;;;;;;5.15;3.50;;;10.10;99.90;;;;;;5054853;28;20452;-64
2023/01/07 07:03:44;;;;;;;6.72;4.13;;;10.10;99.90;;;;;;5055159;28;20052;-64
2023/01/07 07:06:10;;;;;;;7.45;3.95;;;10.10;99.90;;;;;;5055779;28;20096;-64
2023/01/07 07:08:35;;;;;;;7.90;4.50;;;10.20;99.90;;;;;;5054581;28;20052;-64
2023/01/07 07:11:01;;;;;;;8.80;4.35;;;10.10;99.90;;;;;;5054914;28;20570;-64
2023/01/07 07:13:26;;;;;;;7.57;4.85;;;10.10;99.90;;;;;;5055374;28;20107;-64
2023/01/07 07:15:52;;;;;;;5.88;4.25;;;10.20;99.90;;;;;;5053975;28;20116;-64
2023/01/07 07:18:18;;;;;;;7.90;4.75;;;10.20;99.90;;;;;;5055349;28;20021;-66
2023/01/07 07:20:45;;;;;;;8.52;4.70;;;10.20;99.90;;;;;;5055151;28;20028;-66
2023/01/07 07:23:11;;;;;;;15.45;5.25;;;10.20;99.90;;;;;;5055241;28;20032;-66
2023/01/07 07:25:36;;;;;;;8.52;5.53;;;10.10;99.90;;;;;;5055116;28;20025;-66
2023/01/07 07:28:02;;;;;;;8.50;4.70;;;10.00;99.90;;;;;;5053901;28;20097;-66
2023/01/07 07:30:29;;;;;;;9.20;4.72;;;10.10;99.90;;;;;;5055244;28;20067;-66
2023/01/07 07:32:54;;;;;;;6.63;4.57;;;10.10;99.90;;;;;;5055202;28;20060;-66
2023/01/07 07:35:20;;;;;;;8.57;4.93;;;10.10;99.90;;;;;;5055163;28;20056;-66
2023/01/07 07:37:45;;;;;;;8.05;4.85;;;10.10;99.90;;;;;;5055193;28;20028;-64
2023/01/07 07:40:11;;;;;;;8.73;4.50;;;10.10;99.90;;;;;;5054823;28;20033;-65
2023/01/07 07:42:38;;;;;;;6.40;4.07;;;10.10;99.90;;;;;;5054074;28;20025;-64
2023/01/07 07:45:06;;;;;;;9.50;4.47;;;10.00;99.90;;;;;;5054897;28;20021;-64
2023/01/07 07:47:31;;;;;;;9.02;4.95;;;10.20;99.90;;;;;;5054631;28;20021;-64
2023/01/07 07:49:57;;;;;;;6.55;4.30;;;10.00;99.90;;;;;;5054624;28;20047;-64
2023/01/07 07:52:22;;;;;;;7.82;4.53;;;9.90;99.90;;;;;;5053402;28;20021;-64
2023/01/07 07:54:48;;;;;;;9.23;5.00;;;9.90;99.90;;;;;;5053365;28;20476;-64
2023/01/07 07:57:13;;;;;;;12.57;4.20;;;9.90;99.90;;;;;;5054565;28;20024;-64
2023/01/07 07:59:39;;;;;;;9.00;4.90;;;9.90;99.90;;;;;;5053205;28;20025;-64
2023/01/07 08:02:04;;;;;;;6.35;3.97;;;9.90;99.90;;;;;;5054296;28;20167;-64
2023/01/07 08:04:33;;;;;;;7.90;4.72;;;10.00;99.90;;;;;;5053893;28;20028;-64
2023/01/07 08:06:59;;;;;;;6.15;4.15;;;9.90;99.90;;;;;;5054331;28;20078;-66
2023/01/07 08:09:25;;;;;;;7.55;4.43;;;10.00;99.90;;;;;;5053015;28;20029;-66
2023/01/07 08:11:50;;;;;;;7.53;5.07;;;10.00;99.90;;;;;;5053011;28;20048;-66
2023/01/07 08:14:16;;;;;;;7.35;4.40;;;10.10;99.90;;;;;;5053003;28;20025;-66
2023/01/07 08:16:41;;;;;;;8.48;4.50;;;10.00;99.90;;;;;;5052860;28;20033;-66
2023/01/07 08:19:07;;;;;;;7.60;4.47;;;9.90;99.90;;;;;;5053351;28;20032;-66
2023/01/07 08:21:32;;;;;;;7.85;4.47;;;9.80;99.90;;;;;;5052750;28;20025;-66
2023/01/07 08:23:58;;;;;;;9.88;5.07;;;9.90;99.90;;;;;;5054012;28;20423;-66
2023/01/07 08:26:23;;;;;;;8.27;4.88;;;10.10;99.90;;;;;;5054458;28;20029;-66
2023/01/07 08:28:49;;;;;;;8.85;4.90;;;10.00;99.90;;;;;;5053907;28;20108;-64
2023/01/07 08:31:14;;;;;;;7.88;4.68;;;9.90;99.90;;;;;;5052461;28;20064;-64
2023/01/07 08:33:40;;;;;;;6.82;4.68;;;10.00;99.90;;;;;;5052568;28;20032;-64
2023/01/07 08:36:07;;;;;;;8.10;4.72;;;10.00;99.90;;;;;;5052860;28;20055;-64
2023/01/07 08:38:33;;;;;;;9.32;5.40;;;9.90;99.90;;;;;;5052359;28;20025;-64
2023/01/07 08:40:59;;;;;;;13.65;4.82;;;10.10;99.90;;;;;;5052395;28;20491;-64
2023/01/07 08:43:25;;;;;;;9.80;3.67;;;10.20;99.90;;;;;;5052762;28;20021;-65
2023/01/07 08:45:52;;;;;;;7.65;3.53;;;10.30;99.90;;;;;;5053472;28;20052;-66
2023/01/07 08:48:18;;;;;;;7.28;4.47;;;10.30;99.90;;;;;;5052348;28;20021;-66
2023/01/07 08:50:49;;;;;;;7.68;4.07;;;10.20;99.90;;;;;;5052123;28;20025;-66
2023/01/07 08:53:14;;;;;;;15.93;4.80;;;10.20;99.90;;;;;;5053548;28;20032;-64
2023/01/07 08:55:40;;;;;;;6.75;3.97;;;10.20;99.90;;;;;;5052110;28;20021;-64
2023/01/07 08:58:06;;;;;;;8.57;4.40;;;10.20;99.90;;;;;;5052186;28;20056;-64
2023/01/07 09:00:31;;;;;;;6.88;3.97;;;10.30;99.90;;;;;;5053378;28;20047;-64
2023/01/07 09:02:57;;;;;;;6.47;4.03;;;10.30;99.90;;;;;;5052872;28;20025;-64
2023/01/07 09:05:23;;;;;;;7.63;4.40;;;10.40;99.90;;;;;;5053570;28;20017;-64
2023/01/07 09:07:52;;;;;;;5.65;3.80;;;10.50;99.90;;;;;;5052811;28;20032;-64
2023/01/07 09:10:18;;;;;;;6.72;3.25;;;10.50;99.90;;;;;;5053165;28;20032;-64
2023/01/07 09:12:44;;;;;;;7.30;3.60;;;10.50;99.90;;;;;;5052773;28;20021;-64
2023/01/07 09:15:11;;;;;;;5.65;3.15;;;10.50;99.90;;;;;;5053380;28;20115;-64
2023/01/07 09:17:36;;;;;;;6.18;3.70;;;10.40;99.90;;;;;;5052180;28;20032;-64
2023/01/07 09:20:04;;;;;;;7.50;4.00;;;10.40;99.90;;;;;;5051793;28;20020;-64
2023/01/07 09:22:30;;;;;;;6.38;2.92;;;10.40;99.90;;;;;;5053037;28;20040;-64
2023/01/07 09:24:56;;;;;;;4.97;2.97;;;10.40;99.90;;;;;;5053153;28;20506;-64
2023/01/07 09:27:21;;;;;;;4.45;3.10;;;10.40;99.90;;;;;;5053015;28;20040;-64
2023/01/07 09:29:47;;;;;;;8.82;3.03;;;10.40;99.90;;;;;;5051751;28;20025;-64
2023/01/07 09:32:13;;;;;;;7.90;3.20;;;10.40;99.90;;;;;;5053394;28;20155;-64
2023/01/07 09:34:38;;;;;;;5.43;3.10;;;10.40;99.90;;;;;;5051661;28;20033;-64
2023/01/07 09:37:05;;;;;;;5.47;2.83;;;10.30;99.90;;;;;;5053553;28;20040;-64
2023/01/07 09:39:31;;;;;;;5.03;2.58;;;10.30;99.90;;;;;;5052904;28;20103;-64
2023/01/07 09:42:17;;;;;;;5.47;2.50;;;10.40;99.90;;;;;;5051324;28;20064;-64
2023/01/07 09:44:50;;;;;;;5.60;3.05;;;10.40;99.90;;;;;;5052421;28;20027;-64
2023/01/07 09:47:18;;;;;;;4.95;2.58;;;10.30;99.90;;;;;;5052025;28;20031;-64
2023/01/07 09:49:46;;;;;;;5.05;2.92;;;10.40;99.90;;;;;;5050762;28;20056;-64
2023/01/07 09:52:35;;;;;;;4.78;2.60;;;10.30;99.90;;;;;;5050719;28;20021;-64
2023/01/07 09:55:16;;;;;;;6.38;3.13;;;10.30;99.90;;;;;;5050308;28;20044;-64
2023/01/07 09:57:42;;;;;;;4.05;2.80;;;10.40;99.90;;;;;;5052206;28;20028;-64
2023/01/07 10:00:17;;;;;;;4.10;2.65;;;10.30;99.90;;;;;;5051281;28;20033;-64
2023/01/07 10:03:10;;;;;;;8.10;2.95;;;10.30;99.90;;;;;;5052484;28;20053;-64
2023/01/07 10:05:45;;;;;;;3.75;2.38;;;10.60;99.90;;;;;;5050530;28;20443;-64
2023/01/07 10:08:14;;;;;;;2.85;2.03;;;10.60;99.90;;;;;;5052099;28;20025;-64
2023/01/07 10:10:54;;;;;;;4.75;2.63;;;10.70;99.90;;;;;;5050966;28;20400;-64
2023/01/07 10:14:22;;;;;;;5.22;2.15;;;10.70;99.90;;;;;;5051386;28;20025;-64
2023/01/07 10:17:08;;;;;;;3.42;2.42;;;10.70;99.90;;;;;;4993485;28;20124;-65
2023/01/07 10:19:46;;;;;;;4.22;1.90;;;10.70;99.90;;;;;;4993480;28;20026;-64
2023/01/07 10:22:28;;;;;;;2.95;2.10;;;10.70;99.90;;;;;;5010427;28;20026;-64
2023/01/07 10:24:59;;;;;;;3.90;2.70;;;10.70;99.90;;;;;;5012954;28;20026;-64
2023/01/07 10:27:32;;;;;;;4.13;2.65;;;10.70;99.90;;;;;;4997428;28;20038;-64
2023/01/07 10:30:03;;;;;;;4.88;2.10;;;10.70;99.90;;;;;;4997318;28;20042;-65
2023/01/07 10:32:35;;;;;;;3.33;2.05;;;10.70;99.90;;;;;;5013808;28;20033;-64
2023/01/07 10:35:01;;;;;;;4.80;2.67;;;10.70;99.90;;;;;;4996961;28;20034;-64
2023/01/07 10:37:27;;;;;;;4.63;2.47;;;10.70;99.90;;;;;;5013000;28;20030;-65
2023/01/07 10:40:11;;;;;;;4.97;3.03;;;10.60;99.90;;;;;;4977467;28;1027494;-65
2023/01/07 10:42:51;;;;;;;3.75;2.10;;;10.70;99.90;;;;;;5014695;28;20477;-65
2023/01/07 10:45:19;;;;;;;4.95;2.40;;;10.80;99.90;;;;;;4997742;28;20050;-64
2023/01/07 10:48:06;;;;;;;3.50;2.38;;;10.80;99.90;;;;;;5029767;28;20492;-64
2023/01/07 10:50:55;;;;;;;3.58;2.90;;;10.60;99.90;;;;;;5054647;28;20021;-64
2023/01/07 10:53:27;;;;;;;4.45;2.47;;;10.50;99.90;;;;;;5054571;28;20027;-64
2023/01/07 10:56:04;;;;;;;4.05;2.90;;;10.60;99.90;;;;;;5056157;28;20048;-64
2023/01/07 10:58:39;;;;;;;3.53;2.38;;;10.70;99.90;;;;;;5054546;28;20499;-64
2023/01/07 11:01:06;;;;;;;3.65;2.78;;;10.70;99.90;;;;;;5055651;28;20104;-64
2023/01/07 11:03:32;;;;;;;3.88;2.17;;;10.60;99.90;;;;;;5055566;28;20033;-64
2023/01/07 11:06:04;;;;;;;5.03;2.90;;;10.50;99.90;;;;;;5055078;28;20035;-64
2023/01/07 11:08:41;;;;;;;4.32;2.70;;;10.60;99.90;;;;;;5055696;28;20024;-64
2023/01/07 11:11:15;;;;;;;4.22;2.55;;;10.60;99.90;;;;;;5054226;28;20025;-64
2023/01/07 11:13:42;;;;;;;3.85;2.30;;;10.60;99.90;;;;;;5054818;28;20123;-64
2023/01/07 11:16:20;;;;;;;4.07;2.42;;;10.50;99.90;;;;;;5056126;28;20029;-64
2023/01/07 11:19:09;;;;;;;6.60;2.72;;;10.60;99.90;;;;;;5054812;28;20121;-64
2023/01/07 11:21:41;;;;;;;6.68;3.20;;;10.50;99.90;;;;;;5055337;28;20025;-64
2023/01/07 11:24:30;;;;;;;7.85;4.85;;;10.50;99.90;;;;;;5054852;28;20028;-64
2023/01/07 11:27:03;;;;;;;8.02;4.55;;;10.30;99.90;;;;;;5054008;28;20029;-64
2023/01/07 11:29:40;;;;;;;7.90;4.43;;;10.30;99.90;;;;;;5055510;28;20440;-64
2023/01/07 11:32:13;;;;;;;7.47;4.43;;;10.30;99.90;;;;;;5053373;28;20515;-64
2023/01/07 11:34:55;;;;;;;7.38;4.20;;;10.30;99.90;;;;;;5054529;28;20057;-64
2023/01/07 11:37:31;;;;;;;4.32;3.13;;;10.30;99.90;;;;;;5055299;28;20032;-64
2023/01/07 11:39:58;;;;;;;4.68;3.00;;;10.40;99.90;;;;;;5055073;28;20025;-64
2023/01/07 11:42:39;;;;;;;7.78;3.30;;;10.50;99.90;;;;;;5054388;28;20506;-64
2023/01/07 11:45:17;;;;;;;7.20;4.00;;;10.60;99.90;;;;;;5055317;28;20048;-64
2023/01/07 11:47:58;;;;;;;12.18;6.72;;;10.70;99.90;;;;;;5055124;28;20511;-64
2023/01/07 11:50:27;;;;;;;7.30;3.63;;;10.80;99.90;;;;;;5054503;28;20112;-64
2023/01/07 11:53:16;;;;;;;8.20;4.75;;;10.90;99.90;;;;;;5053215;28;20021;-64
2023/01/07 11:56:01;;;;;;;9.50;4.63;;;10.80;99.90;;;;;;5054615;28;20036;-66
2023/01/07 11:58:29;;;;;;;9.63;4.88;;;10.60;99.90;;;;;;5054758;28;20384;-66
2023/01/07 12:01:07;;;;;;;6.75;3.67;;;10.70;99.90;;;;;;5054528;28;20021;-66
2023/01/07 12:03:34;;;;;;;10.13;4.00;;;10.90;99.90;;;;;;5054415;28;20049;-66
2023/01/07 12:06:07;;;;;;;6.65;4.00;;;10.80;99.90;;;;;;5053060;28;20033;-66
2023/01/07 12:09:12;;;;;;;5.38;3.00;;;10.70;99.90;;;;;;5053942;28;20029;-66
2023/01/07 12:11:40;;;;;;;4.75;2.40;;;10.90;99.90;;;;;;5053038;28;20028;-66
2023/01/07 12:14:28;;;;;;;4.55;2.47;;;10.90;99.90;;;;;;5053027;28;20503;-66
2023/01/07 12:17:04;;;;;;;2.88;2.08;;;10.80;99.90;;;;;;5054084;28;20167;-66
2023/01/07 12:20:04;;;;;;;3.70;2.10;;;10.70;99.90;;;;;;5054045;28;20044;-66
2023/01/07 12:22:38;;;;;;;3.20;2.03;;;10.70;99.90;;;;;;5052893;28;20036;-66
2023/01/07 12:25:29;;;;;;;2.53;1.75;;;10.80;99.90;;;;;;5052922;28;20032;-66
2023/01/07 12:28:13;;;;;;;3.05;2.08;;;11.00;99.90;;;;;;5053557;28;20025;-66
2023/01/07 12:31:03;;;;;;;4.50;1.50;;;11.10;99.90;;;;;;5053382;28;20039;-66
2023/01/07 12:33:29;;;;;;;1.65;1.17;;;11.00;99.90;;;;;;5054201;28;20032;-66
2023/01/07 12:36:02;;;;;;;3.78;1.50;;;11.00;99.90;;;;;;5052624;28;20025;-64
2023/01/07 12:38:48;;;;;;;1.70;1.30;;;11.00;99.90;;;;;;5054139;28;20021;-64
2023/01/07 12:41:22;;;;;;;3.28;1.30;;;11.10;99.90;;;;;;5052515;28;20116;-64
2023/01/07 12:44:01;;;;;;;2.50;1.65;;;11.10;99.90;;;;;;5052460;28;20039;-64
2023/01/07 12:46:39;;;;;;;1.75;1.00;;;11.40;99.90;;;;;;5052161;28;20035;-63
2023/01/07 12:49:27;;;;;;;1.63;1.10;;;11.20;99.90;;;;;;5053528;28;20024;-64
2023/01/07 12:52:01;;;;;;;4.07;1.60;;;11.00;99.90;;;;;;5052555;28;20039;-64
2023/01/07 12:54:33;;;;;;;1.52;1.02;;;11.10;99.90;;;;;;5053596;28;20029;-64
2023/01/07 12:57:16;;;;;;;1.73;1.20;;;11.10;99.90;;;;;;5053361;28;20060;-64
2023/01/07 12:59:57;;;;;;;3.60;1.42;;;11.10;99.90;;;;;;5053045;28;20045;-64
2023/01/07 13:02:50;;;;;;;1.73;1.23;;;11.20;99.90;;;;;;5053040;28;20025;-64
2023/01/07 13:05:27;;;;;;;2.35;1.45;;;11.20;99.90;;;;;;5053593;28;20078;-64
2023/01/07 13:08:20;;;;;;;2.20;1.17;;;11.10;99.90;;;;;;5052439;28;20047;-64
2023/01/07 13:11:00;;;;;;;3.38;1.25;;;11.00;99.90;;;;;;5053282;28;20028;-64
2023/01/07 13:13:36;;;;;;;2.75;1.50;;;11.00;99.90;;;;;;5052915;28;20029;-64